Greene, Ohio
Current Conditions -  °F | °C
As of 2:51 AM on Saturday 20 Dec 2014 (Local Time) from KYNG Reporting Station
Overcast Overcast  
Wind Chill: 27°   Ceiling: 2300
Heat Index: 27°   Visibility: 10mi
Dew Point: 19°   Wind: 3mph
Humidity: 72%   Direction: 270°W
Pressure: 30.25"   Gusts: NA
Location:  41.4555°N, 80.829°W
Report Text: KYNG 200751Z 27003KT 10SM OVC023 M03/M07 A3025 RMK AO2 SLP258 T10281072
Loading
Personal Weather Stations






























Interactive Weather Map New forecast layout! Learn more

10-Day Weather Forecast

Advertisements
Track Severe Weather on mobile